Time;durP1;ratioP1;P1;durP2;ratioP2;P2;SDS_P1;SDS_P2;PMS_P1;PMS_P2;Temp;Humidity;BMP_temperature;BMP_pressure;BME280_temperature;BME280_humidity;BME280_pressure;Samples;Min_cycle;Max_cycle;Signal;HPM_P1;HPM_P2
2023/08/10 00:00:19;;;;;;;7.35;2.87;;;11.90;99.90;;;;;;7272693;32;20454;-55
2023/08/10 00:04:20;;;;;;;8.65;2.28;;;11.90;99.90;;;;;;7277997;32;20131;-55
2023/08/10 00:08:22;;;;;;;4.22;2.30;;;11.90;99.90;;;;;;7264638;32;20574;-55
2023/08/10 00:12:24;;;;;;;7.93;2.12;;;12.00;99.90;;;;;;7269954;32;20125;-55
2023/08/10 00:16:26;;;;;;;5.32;1.80;;;12.00;99.90;;;;;;7272658;32;20669;-55
2023/08/10 00:20:27;;;;;;;4.62;2.03;;;12.10;99.90;;;;;;7266214;32;20164;-55
2023/08/10 00:24:29;;;;;;;5.57;2.17;;;12.10;99.90;;;;;;7277890;32;20172;-56
2023/08/10 00:28:32;;;;;;;9.82;2.08;;;12.10;99.90;;;;;;7276183;32;20143;-56
2023/08/10 00:32:34;;;;;;;3.30;2.08;;;12.10;99.90;;;;;;7271365;32;20152;-55
2023/08/10 00:36:36;;;;;;;6.70;2.28;;;12.10;99.90;;;;;;7271191;32;20291;-55
2023/08/10 00:40:38;;;;;;;4.45;2.00;;;12.10;99.90;;;;;;7273591;32;20470;-55
2023/08/10 00:44:40;;;;;;;4.50;1.92;;;12.10;99.90;;;;;;7264171;32;20162;-56
2023/08/10 00:48:42;;;;;;;5.15;1.92;;;12.10;99.90;;;;;;7264790;32;20116;-56
2023/08/10 00:52:44;;;;;;;8.35;2.25;;;12.10;99.90;;;;;;7268120;32;20545;-55
2023/08/10 00:56:46;;;;;;;7.40;2.12;;;12.10;99.90;;;;;;7277432;32;20142;-55
2023/08/10 01:00:48;;;;;;;9.93;2.40;;;12.10;99.90;;;;;;7269239;32;20325;-55
2023/08/10 01:04:50;;;;;;;7.97;1.95;;;12.10;99.90;;;;;;7275563;32;20134;-56
2023/08/10 01:09:03;;;;;;;9.38;2.35;;;12.20;99.90;;;;;;7275011;32;20111;-55
2023/08/10 01:13:28;;;;;;;5.37;2.42;;;12.10;99.90;;;;;;7271773;32;20131;-56
2023/08/10 01:17:38;;;;;;;5.40;1.87;;;12.20;99.90;;;;;;7263040;32;20780;-55
2023/08/10 01:22:01;;;;;;;4.78;1.98;;;12.20;99.90;;;;;;7275904;32;20615;-55
2023/08/10 01:26:04;;;;;;;5.10;2.30;;;12.20;99.90;;;;;;7267000;32;20134;-55
2023/08/10 01:30:08;;;;;;;7.53;2.00;;;12.30;99.90;;;;;;7271136;32;20108;-55
2023/08/10 01:34:09;;;;;;;4.87;2.08;;;12.30;99.90;;;;;;7267103;32;20164;-56
2023/08/10 01:38:11;;;;;;;5.93;1.85;;;12.40;99.90;;;;;;7259075;32;21687;-56
2023/08/10 01:42:13;;;;;;;7.62;2.28;;;12.40;99.90;;;;;;7274591;32;20244;-55
2023/08/10 01:46:19;;;;;;;4.72;1.70;;;12.40;99.90;;;;;;7270195;32;20111;-56
2023/08/10 01:50:24;;;;;;;5.97;1.90;;;12.40;99.90;;;;;;7261849;32;20163;-55
2023/08/10 01:54:27;;;;;;;6.28;1.95;;;12.40;99.90;;;;;;7257300;32;20271;-56
2023/08/10 01:58:29;;;;;;;3.70;1.95;;;12.40;99.90;;;;;;7266329;32;20108;-56
2023/08/10 02:02:32;;;;;;;5.57;1.90;;;12.40;99.90;;;;;;7275127;32;20145;-56
2023/08/10 02:06:39;;;;;;;5.45;1.92;;;12.50;99.90;;;;;;7270239;32;20116;-56
2023/08/10 02:10:40;;;;;;;4.18;2.03;;;12.50;99.90;;;;;;7268767;32;20112;-56
2023/08/10 02:14:42;;;;;;;3.83;2.20;;;12.50;99.90;;;;;;7272540;32;20177;-56
2023/08/10 02:18:44;;;;;;;5.95;1.95;;;12.50;99.90;;;;;;7262599;32;20148;-56
2023/08/10 02:22:51;;;;;;;7.35;2.15;;;12.60;99.90;;;;;;7269756;32;20640;-54
2023/08/10 02:26:52;;;;;;;3.67;1.50;;;12.60;99.90;;;;;;7266002;32;20108;-55
2023/08/10 02:30:54;;;;;;;7.20;2.10;;;12.60;99.90;;;;;;7267808;32;20255;-55
2023/08/10 02:34:56;;;;;;;5.65;2.05;;;12.60;99.90;;;;;;7264124;32;20225;-55
2023/08/10 02:38:58;;;;;;;5.90;1.98;;;12.60;99.90;;;;;;7268825;32;20124;-55
2023/08/10 02:43:00;;;;;;;5.25;2.00;;;12.60;99.90;;;;;;7269823;32;20199;-55
2023/08/10 02:47:02;;;;;;;7.55;2.05;;;12.60;99.90;;;;;;7270101;32;20406;-55
2023/08/10 02:51:04;;;;;;;7.15;1.87;;;12.70;99.90;;;;;;7268480;32;20124;-55
2023/08/10 02:55:06;;;;;;;4.70;1.92;;;12.60;99.90;;;;;;7266808;32;20177;-55
2023/08/10 02:59:08;;;;;;;5.43;1.62;;;12.60;99.90;;;;;;7279281;32;20495;-55
2023/08/10 03:03:10;;;;;;;6.40;1.92;;;12.50;99.90;;;;;;7276607;32;20275;-55
2023/08/10 03:07:13;;;;;;;3.58;1.95;;;12.50;99.90;;;;;;7267515;32;20227;-55
2023/08/10 03:11:15;;;;;;;3.95;2.05;;;12.40;99.90;;;;;;7273033;32;20122;-55
2023/08/10 03:15:16;;;;;;;6.05;2.10;;;12.40;99.90;;;;;;7273434;32;20185;-55
2023/08/10 03:19:18;;;;;;;4.37;1.87;;;12.40;99.90;;;;;;7272676;32;20134;-55
2023/08/10 03:23:20;;;;;;;5.32;2.33;;;12.40;99.90;;;;;;7271955;32;20135;-55
2023/08/10 03:27:22;;;;;;;7.47;1.75;;;12.40;99.90;;;;;;7270790;32;20288;-55
2023/08/10 03:31:23;;;;;;;6.15;2.15;;;12.40;99.90;;;;;;7279106;32;20134;-55
2023/08/10 03:35:25;;;;;;;5.75;2.10;;;12.40;99.90;;;;;;7274073;32;20120;-55
2023/08/10 03:39:27;;;;;;;6.78;2.00;;;12.30;99.90;;;;;;7269498;32;20112;-55
2023/08/10 03:43:29;;;;;;;5.55;2.00;;;12.30;99.90;;;;;;7268155;32;20116;-56
2023/08/10 03:47:31;;;;;;;5.37;2.08;;;12.20;99.90;;;;;;7265011;32;20130;-55
2023/08/10 03:51:33;;;;;;;3.15;1.80;;;12.20;99.90;;;;;;7270427;32;20671;-55
2023/08/10 03:55:34;;;;;;;3.92;1.95;;;12.10;99.90;;;;;;7274667;32;20279;-55
2023/08/10 03:59:36;;;;;;;5.05;1.92;;;12.20;99.90;;;;;;7270431;32;20206;-55
2023/08/10 04:03:38;;;;;;;7.20;1.80;;;12.20;99.90;;;;;;7272957;32;20123;-55
2023/08/10 04:07:40;;;;;;;6.35;1.80;;;12.20;99.90;;;;;;7262816;32;20278;-56
2023/08/10 04:11:42;;;;;;;5.53;1.90;;;12.30;99.90;;;;;;7277592;32;20113;-55
2023/08/10 04:15:43;;;;;;;4.65;2.05;;;12.30;99.90;;;;;;7265525;32;20253;-55
2023/08/10 04:19:45;;;;;;;2.58;1.85;;;12.30;99.90;;;;;;7273949;32;20614;-55
2023/08/10 04:23:47;;;;;;;5.85;2.00;;;12.30;99.90;;;;;;7274108;32;20226;-55
2023/08/10 04:27:49;;;;;;;4.57;2.10;;;12.30;99.90;;;;;;7275607;32;20120;-55
2023/08/10 04:31:50;;;;;;;7.80;2.25;;;12.30;99.90;;;;;;7276199;32;20111;-55
2023/08/10 04:35:52;;;;;;;6.00;1.92;;;12.30;99.90;;;;;;7275595;32;20128;-55
2023/08/10 04:39:54;;;;;;;3.50;2.03;;;12.40;99.90;;;;;;7268684;32;20120;-55
2023/08/10 04:43:56;;;;;;;5.62;2.40;;;12.40;99.90;;;;;;7269066;32;20161;-56
2023/08/10 04:47:58;;;;;;;7.57;2.53;;;12.50;99.90;;;;;;7269697;32;20261;-56
2023/08/10 04:51:59;;;;;;;6.55;2.85;;;12.60;99.90;;;;;;7275610;32;20503;-56
2023/08/10 04:56:01;;;;;;;6.97;1.80;;;12.70;99.90;;;;;;7272656;32;20301;-56
2023/08/10 05:00:09;;;;;;;7.25;1.92;;;12.90;99.90;;;;;;7267767;32;20135;-56
2023/08/10 05:04:13;;;;;;;5.93;1.83;;;13.20;99.90;;;;;;7262882;32;20124;-56
2023/08/10 05:08:16;;;;;;;4.62;1.60;;;13.80;99.90;;;;;;7265955;32;20780;-56
2023/08/10 05:12:17;;;;;;;5.80;1.58;;;14.30;99.90;;;;;;7276714;32;20147;-56
2023/08/10 05:16:19;;;;;;;6.32;1.65;;;14.70;99.90;;;;;;7270518;32;20171;-55
2023/08/10 05:20:21;;;;;;;3.55;1.50;;;14.80;99.90;;;;;;7261164;32;20845;-55
2023/08/10 05:24:23;;;;;;;6.70;1.77;;;14.80;99.90;;;;;;7266255;32;20203;-57
2023/08/10 05:28:25;;;;;;;5.07;1.60;;;14.70;99.90;;;;;;7270606;32;20255;-56
2023/08/10 05:32:26;;;;;;;7.03;1.98;;;14.60;99.90;;;;;;7266687;32;20515;-56
2023/08/10 05:36:28;;;;;;;11.23;3.30;;;14.40;99.90;;;;;;7264434;32;20227;-55
2023/08/10 05:40:30;;;;;;;6.47;3.35;;;14.20;99.90;;;;;;7272919;32;20109;-55
2023/08/10 05:44:32;;;;;;;5.97;3.40;;;14.10;99.90;;;;;;7270791;32;20113;-55
2023/08/10 05:48:34;;;;;;;6.22;3.40;;;14.00;99.90;;;;;;7268571;32;20750;-55
2023/08/10 05:52:35;;;;;;;6.78;2.75;;;13.90;99.90;;;;;;7266406;32;20116;-55
2023/08/10 05:56:37;;;;;;;5.03;2.40;;;13.80;99.90;;;;;;7270933;32;20203;-55
2023/08/10 06:00:39;;;;;;;5.53;2.47;;;13.90;99.90;;;;;;7271958;32;20763;-56
2023/08/10 06:04:41;;;;;;;9.05;4.80;;;13.80;99.90;;;;;;7272294;32;20227;-56
2023/08/10 06:08:44;;;;;;;9.05;4.03;;;13.80;99.90;;;;;;7267249;32;20871;-55
2023/08/10 06:12:46;;;;;;;6.65;3.97;;;13.90;99.90;;;;;;7265771;32;20187;-55
2023/08/10 06:16:48;;;;;;;7.35;4.30;;;13.90;99.90;;;;;;7269499;32;20162;-55
2023/08/10 06:20:50;;;;;;;10.43;3.95;;;13.90;99.90;;;;;;7265201;32;20117;-55
2023/08/10 06:24:52;;;;;;;6.62;3.75;;;13.90;99.90;;;;;;7266285;32;20159;-56
2023/08/10 06:28:54;;;;;;;6.28;3.95;;;13.90;99.90;;;;;;7272436;32;20175;-56
2023/08/10 06:32:56;;;;;;;8.35;3.95;;;14.00;99.90;;;;;;7266444;32;20466;-55
2023/08/10 06:36:59;;;;;;;11.93;4.80;;;14.10;99.90;;;;;;7273106;32;20257;-55
2023/08/10 06:41:01;;;;;;;8.00;4.32;;;14.10;99.90;;;;;;7270034;32;20146;-56
2023/08/10 06:45:04;;;;;;;10.32;5.45;;;14.20;99.90;;;;;;7273265;32;20175;-56
2023/08/10 06:49:07;;;;;;;9.50;4.65;;;14.20;99.90;;;;;;7268353;32;20173;-55
2023/08/10 06:53:10;;;;;;;10.20;5.12;;;14.40;99.90;;;;;;7272208;32;20130;-55
2023/08/10 06:57:12;;;;;;;13.85;4.90;;;14.50;99.90;;;;;;7286771;32;20112;-55
2023/08/10 07:01:14;;;;;;;9.00;3.92;;;14.70;99.90;;;;;;7272476;32;20104;-55
2023/08/10 07:05:16;;;;;;;11.95;4.57;;;14.80;99.90;;;;;;7270265;32;20108;-55
2023/08/10 07:09:18;;;;;;;8.07;4.57;;;15.00;99.90;;;;;;7270511;32;20519;-55
2023/08/10 07:13:21;;;;;;;9.57;4.28;;;15.10;99.90;;;;;;7268978;32;20259;-55
2023/08/10 07:17:23;;;;;;;8.52;3.40;;;15.60;99.90;;;;;;7263138;32;20250;-56
2023/08/10 07:21:25;;;;;;;7.95;2.90;;;15.90;99.90;;;;;;7269533;32;20138;-56
2023/08/10 07:25:28;;;;;;;8.30;2.95;;;16.10;99.90;;;;;;7263314;32;20294;-57
2023/08/10 07:29:30;;;;;;;5.45;2.85;;;16.40;99.90;;;;;;7270293;32;20139;-56
2023/08/10 07:33:31;;;;;;;9.18;3.65;;;16.80;99.90;;;;;;7266870;32;20458;-56
2023/08/10 07:37:34;;;;;;;6.85;2.53;;;17.00;99.90;;;;;;7275013;32;20131;-56
2023/08/10 07:41:36;;;;;;;7.82;2.50;;;16.70;99.90;;;;;;7280178;32;20597;-56
2023/08/10 07:45:37;;;;;;;7.87;2.28;;;16.60;99.90;;;;;;7274301;32;20398;-56
2023/08/10 07:49:43;;;;;;;8.07;2.62;;;16.50;99.90;;;;;;7271960;32;20560;-56
2023/08/10 07:53:44;;;;;;;7.82;2.33;;;16.40;99.90;;;;;;7276853;32;20132;-56
2023/08/10 07:57:46;;;;;;;7.95;2.53;;;16.40;99.90;;;;;;7271217;32;20112;-56
2023/08/10 08:01:48;;;;;;;9.10;2.62;;;16.50;99.90;;;;;;7276892;32;20170;-56
2023/08/10 08:05:50;;;;;;;8.50;3.03;;;16.30;99.90;;;;;;7277180;32;20165;-56
2023/08/10 08:09:53;;;;;;;7.55;2.40;;;16.30;99.90;;;;;;7279671;32;20251;-57
2023/08/10 08:13:54;;;;;;;5.65;2.40;;;16.50;99.90;;;;;;7273464;32;20241;-57
2023/08/10 08:18:37;;;;;;;4.57;2.10;;;16.60;99.90;;;;;;7280558;32;20175;-57
2023/08/10 08:22:39;;;;;;;7.05;2.12;;;16.90;99.90;;;;;;7274653;32;20120;-58
2023/08/10 08:26:41;;;;;;;9.60;2.40;;;17.10;99.90;;;;;;7272017;32;20132;-57
2023/08/10 08:30:42;;;;;;;6.10;1.77;;;17.20;99.90;;;;;;7270541;32;20249;-57
2023/08/10 08:34:44;;;;;;;4.25;2.05;;;17.20;99.90;;;;;;7275870;32;20104;-55
2023/08/10 08:38:46;;;;;;;6.53;2.00;;;17.70;99.90;;;;;;7271557;32;20212;-57
2023/08/10 08:42:49;;;;;;;5.25;2.10;;;18.70;99.90;;;;;;7275009;32;22072;-57
2023/08/10 08:46:51;;;;;;;6.37;2.00;;;19.10;99.90;;;;;;7267263;32;20127;-55
2023/08/10 08:50:54;;;;;;;4.82;1.95;;;20.30;99.90;;;;;;7272719;32;20104;-57
2023/08/10 08:54:58;;;;;;;5.78;1.85;;;22.30;99.90;;;;;;7268412;32;20121;-54
2023/08/10 08:59:00;;;;;;;5.78;2.20;;;23.70;99.90;;;;;;7267832;32;20328;-55
2023/08/10 09:03:02;;;;;;;7.93;1.90;;;25.00;99.90;;;;;;7271337;32;20131;-55
2023/08/10 09:07:04;;;;;;;7.25;1.92;;;26.70;99.90;;;;;;7266782;32;20112;-57
2023/08/10 09:11:06;;;;;;;6.60;2.20;;;27.00;99.60;;;;;;7272253;32;20211;-57
2023/08/10 09:15:13;;;;;;;7.05;1.85;;;27.60;99.50;;;;;;7267594;32;20363;-57
2023/08/10 09:19:17;;;;;;;4.90;2.05;;;28.10;92.80;;;;;;7266960;32;20206;-57
2023/08/10 09:23:19;;;;;;;10.05;3.10;;;28.10;98.30;;;;;;7269664;32;20135;-57
2023/08/10 09:27:23;;;;;;;8.88;2.90;;;28.30;90.80;;;;;;7268142;32;20108;-57
2023/08/10 09:31:26;;;;;;;7.22;3.72;;;28.00;92.10;;;;;;7268835;32;20131;-57
2023/08/10 09:35:30;;;;;;;7.45;4.05;;;28.40;91.90;;;;;;7275348;32;20222;-56
2023/08/10 09:39:32;;;;;;;9.23;4.55;;;27.90;93.30;;;;;;7275674;32;20191;-57
2023/08/10 09:43:39;;;;;;;8.35;4.40;;;27.70;91.10;;;;;;7273673;32;20226;-57
2023/08/10 09:47:42;;;;;;;9.52;4.35;;;27.00;92.00;;;;;;7269548;32;20886;-56
2023/08/10 09:51:44;;;;;;;7.15;4.40;;;26.50;92.00;;;;;;7274196;32;20525;-56
2023/08/10 09:55:46;;;;;;;9.73;4.10;;;25.80;92.90;;;;;;7266115;32;20261;-56
2023/08/10 09:59:48;;;;;;;11.52;5.30;;;25.60;94.10;;;;;;7270171;32;20121;-55
2023/08/10 10:03:50;;;;;;;11.30;6.18;;;25.90;96.70;;;;;;7274398;32;20169;-56
2023/08/10 10:07:52;;;;;;;13.85;7.50;;;26.40;99.90;;;;;;7268150;32;20267;-57
2023/08/10 10:11:58;;;;;;;16.67;8.05;;;25.60;94.80;;;;;;7271415;32;20136;-56
2023/08/10 10:16:00;;;;;;;16.80;9.18;;;26.20;98.70;;;;;;7265288;32;20227;-56
2023/08/10 10:20:04;;;;;;;15.63;8.70;;;26.50;98.10;;;;;;7264412;32;20116;-55
2023/08/10 10:24:12;;;;;;;13.43;8.98;;;26.60;98.70;;;;;;7268229;32;20108;-56
2023/08/10 10:28:16;;;;;;;14.95;9.18;;;26.50;98.70;;;;;;7264254;32;22044;-56
2023/08/10 10:32:22;;;;;;;14.77;8.82;;;26.00;99.90;;;;;;7270555;32;20538;-56
2023/08/10 10:36:25;;;;;;;14.70;8.52;;;25.80;95.30;;;;;;7271476;32;20144;-56
2023/08/10 10:40:27;;;;;;;18.37;10.80;;;25.20;98.80;;;;;;7266631;32;20132;-55
2023/08/10 10:45:14;;;;;;;24.63;12.40;;;25.40;99.90;;;;;;7279753;32;20199;-55
2023/08/10 10:49:20;;;;;;;21.60;11.55;;;23.60;99.90;;;;;;7212981;32;20162;-55
2023/08/10 10:53:23;;;;;;;18.70;10.00;;;24.60;99.90;;;;;;7268069;32;20205;-56
2023/08/10 10:57:26;;;;;;;17.15;10.05;;;24.40;99.90;;;;;;7265316;32;20347;-56
2023/08/10 11:01:28;;;;;;;15.32;8.25;;;23.70;99.90;;;;;;7264634;32;20136;-56
2023/08/10 11:05:29;;;;;;;15.68;9.50;;;24.20;99.90;;;;;;7264375;32;20195;-55
2023/08/10 11:09:31;;;;;;;14.87;8.07;;;24.00;99.90;;;;;;7266101;32;20206;-54
2023/08/10 11:13:33;;;;;;;18.42;9.57;;;24.30;99.90;;;;;;7278601;32;20116;-53
2023/08/10 11:17:36;;;;;;;19.92;10.68;;;24.40;99.90;;;;;;7266822;32;20515;-58
2023/08/10 11:21:51;;;;;;;18.77;10.32;;;24.70;99.90;;;;;;7278040;32;20203;-59
2023/08/10 11:25:54;;;;;;;22.33;11.68;;;24.80;99.90;;;;;;7273696;32;20127;-59
2023/08/10 11:29:56;;;;;;;20.12;10.88;;;24.50;99.90;;;;;;7266261;32;20132;-59
2023/08/10 11:33:57;;;;;;;22.00;11.18;;;24.70;99.90;;;;;;7274565;32;20162;-61
2023/08/10 11:37:59;;;;;;;24.45;13.27;;;24.90;99.90;;;;;;7277092;32;20220;-60
2023/08/10 11:42:01;;;;;;;23.98;11.65;;;25.10;99.90;;;;;;7277230;32;20263;-59
2023/08/10 11:46:03;;;;;;;25.55;11.50;;;25.10;99.90;;;;;;7270099;32;20255;-60
2023/08/10 11:50:08;;;;;;;23.67;11.68;;;25.00;99.90;;;;;;7271969;32;20240;-59
2023/08/10 11:54:10;;;;;;;22.70;11.55;;;24.90;99.90;;;;;;7270900;32;20112;-60
2023/08/10 11:58:14;;;;;;;29.08;12.10;;;25.20;99.90;;;;;;7266888;32;20135;-60
2023/08/10 12:02:18;;;;;;;25.73;12.60;;;25.00;99.00;;;;;;7277649;32;20247;-60
2023/08/10 12:06:20;;;;;;;23.23;12.32;;;25.00;99.90;;;;;;7273309;32;20195;-60
2023/08/10 12:10:22;;;;;;;30.12;13.10;;;24.90;99.90;;;;;;7274706;32;20791;-60
2023/08/10 12:14:24;;;;;;;26.90;12.68;;;24.80;99.90;;;;;;7267359;32;20904;-60
2023/08/10 12:18:26;;;;;;;28.38;12.85;;;24.90;99.90;;;;;;7274377;32;20253;-59
2023/08/10 12:22:28;;;;;;;26.55;12.55;;;25.00;99.90;;;;;;7272430;32;20526;-59
2023/08/10 12:26:29;;;;;;;24.63;12.98;;;25.20;99.90;;;;;;7262142;32;20132;-59
2023/08/10 12:30:32;;;;;;;24.37;11.90;;;25.20;99.90;;;;;;7269322;32;20294;-59
2023/08/10 12:34:34;;;;;;;27.23;12.63;;;25.10;99.90;;;;;;7268926;32;20486;-60
2023/08/10 12:38:35;;;;;;;24.80;11.82;;;24.90;99.90;;;;;;7272998;32;20581;-59
2023/08/10 12:42:38;;;;;;;26.60;12.48;;;25.00;99.90;;;;;;7274792;32;20116;-61
2023/08/10 12:46:40;;;;;;;33.75;12.93;;;25.20;99.90;;;;;;7265439;32;20107;-59
2023/08/10 12:50:42;;;;;;;27.23;12.48;;;25.40;99.90;;;;;;7271028;32;20693;-60
2023/08/10 12:54:43;;;;;;;23.45;11.65;;;25.50;98.40;;;;;;7271877;32;20124;-60
2023/08/10 12:58:45;;;;;;;20.37;10.10;;;26.10;99.90;;;;;;7274981;32;20643;-59
2023/08/10 13:02:49;;;;;;;23.67;10.27;;;26.70;99.90;;;;;;7271118;32;20116;-59
2023/08/10 13:06:51;;;;;;;23.20;9.98;;;26.70;99.90;;;;;;7270326;32;20151;-58
2023/08/10 13:10:53;;;;;;;21.23;9.45;;;26.80;96.60;;;;;;7266880;32;20439;-60
2023/08/10 13:14:55;;;;;;;18.75;9.18;;;26.80;97.90;;;;;;7266656;32;20288;-58
2023/08/10 13:18:57;;;;;;;27.83;10.65;;;26.80;98.00;;;;;;7268225;32;20112;-58
2023/08/10 13:22:59;;;;;;;21.60;9.85;;;26.60;97.60;;;;;;7269585;32;21004;-59
2023/08/10 13:27:04;;;;;;;22.10;10.52;;;26.40;98.10;;;;;;7267773;32;20320;-59
2023/08/10 13:31:07;;;;;;;25.12;10.38;;;26.40;97.80;;;;;;7268468;32;20116;-59
2023/08/10 13:35:08;;;;;;;23.12;10.60;;;26.20;97.30;;;;;;7264770;32;20121;-61
2023/08/10 13:39:10;;;;;;;23.23;10.70;;;25.60;98.10;;;;;;7269388;32;20243;-58
2023/08/10 13:43:12;;;;;;;24.87;10.85;;;25.50;97.90;;;;;;7271602;32;20196;-57
2023/08/10 13:47:14;;;;;;;19.83;9.35;;;25.60;99.40;;;;;;7273304;32;20108;-58
2023/08/10 13:51:16;;;;;;;23.52;9.20;;;25.50;99.90;;;;;;7270349;32;20255;-58
2023/08/10 13:55:18;;;;;;;19.85;9.38;;;25.30;99.90;;;;;;7256131;32;20191;-56
2023/08/10 13:59:19;;;;;;;24.58;10.48;;;25.00;99.90;;;;;;7270923;32;20116;-56
2023/08/10 14:03:21;;;;;;;20.15;9.25;;;24.60;99.90;;;;;;7270724;32;20191;-56
2023/08/10 14:07:23;;;;;;;20.90;9.50;;;24.40;99.90;;;;;;7266165;32;20109;-54
2023/08/10 14:11:25;;;;;;;16.95;9.05;;;24.00;99.90;;;;;;7271909;32;20222;-54
2023/08/10 14:15:27;;;;;;;21.98;9.88;;;23.50;99.90;;;;;;7269019;32;20132;-53
2023/08/10 14:19:29;;;;;;;19.70;9.25;;;23.30;99.90;;;;;;7267099;32;20899;-53
2023/08/10 14:23:30;;;;;;;21.92;9.05;;;23.00;99.90;;;;;;7268202;32;20231;-54
2023/08/10 14:27:32;;;;;;;21.87;9.20;;;22.70;99.90;;;;;;7264552;32;20291;-53
2023/08/10 14:31:35;;;;;;;21.30;9.55;;;22.80;99.90;;;;;;7265325;32;20123;-53
2023/08/10 14:35:37;;;;;;;21.42;8.98;;;22.60;99.90;;;;;;7272807;32;20166;-54
2023/08/10 14:39:38;;;;;;;17.35;8.50;;;22.80;99.90;;;;;;7267376;32;20100;-54
2023/08/10 14:43:40;;;;;;;16.20;7.32;;;23.20;99.90;;;;;;7269531;32;22009;-54
2023/08/10 14:47:57;;;;;;;17.10;8.30;;;23.70;99.90;;;;;;7268841;32;20557;-54
2023/08/10 14:51:59;;;;;;;20.40;9.57;;;24.30;99.90;;;;;;7274243;32;20112;-56
2023/08/10 14:56:00;;;;;;;19.90;9.32;;;24.50;99.90;;;;;;7274525;32;20229;-56
2023/08/10 15:00:05;;;;;;;21.12;9.35;;;24.90;99.90;;;;;;7277563;32;20136;-55
2023/08/10 15:04:08;;;;;;;21.65;8.73;;;25.20;99.90;;;;;;7277277;32;20130;-56
2023/08/10 15:08:10;;;;;;;14.95;7.93;;;25.10;99.90;;;;;;7271739;32;20219;-56
2023/08/10 15:12:13;;;;;;;19.98;8.80;;;25.50;99.90;;;;;;7269626;32;20513;-56
2023/08/10 15:16:15;;;;;;;13.98;7.37;;;25.30;98.30;;;;;;7273906;32;20112;-56
2023/08/10 15:20:17;;;;;;;15.77;7.62;;;25.30;99.90;;;;;;7272768;32;20219;-56
2023/08/10 15:24:21;;;;;;;15.75;6.90;;;24.70;99.90;;;;;;7274339;32;20136;-56
2023/08/10 15:28:23;;;;;;;14.10;6.60;;;24.40;99.90;;;;;;7267806;32;20206;-56
2023/08/10 15:32:25;;;;;;;16.10;6.97;;;24.20;99.90;;;;;;7272302;32;20120;-55
2023/08/10 15:36:28;;;;;;;18.37;6.07;;;24.00;99.90;;;;;;7268673;32;20749;-54
2023/08/10 15:40:32;;;;;;;12.95;6.07;;;24.10;99.90;;;;;;7273896;32;20483;-54
2023/08/10 15:44:33;;;;;;;16.05;10.20;;;23.90;99.90;;;;;;7272601;32;20238;-55
2023/08/10 15:48:35;;;;;;;16.45;6.18;;;23.60;99.90;;;;;;7269516;32;20108;-57
2023/08/10 15:52:37;;;;;;;9.55;4.85;;;23.50;99.90;;;;;;7263003;32;20108;-55
2023/08/10 15:56:39;;;;;;;10.07;5.55;;;23.70;99.90;;;;;;7267937;32;20126;-53
2023/08/10 16:00:40;;;;;;;12.18;4.22;;;23.70;99.90;;;;;;7268105;32;20679;-55
2023/08/10 16:04:42;;;;;;;12.70;4.87;;;23.80;99.90;;;;;;7264217;32;20579;-56
2023/08/10 16:08:44;;;;;;;8.70;4.82;;;23.60;99.90;;;;;;7271822;32;20112;-56
2023/08/10 16:12:46;;;;;;;12.25;5.78;;;23.40;99.90;;;;;;7263827;32;20270;-56
2023/08/10 16:16:49;;;;;;;11.95;5.80;;;23.10;99.90;;;;;;7264317;32;20648;-56
2023/08/10 16:20:51;;;;;;;9.10;4.75;;;22.80;99.90;;;;;;7266325;32;20440;-56
2023/08/10 16:24:53;;;;;;;11.30;4.72;;;22.90;99.90;;;;;;7265390;32;20356;-56
2023/08/10 16:28:57;;;;;;;9.73;4.55;;;22.90;99.90;;;;;;7273021;32;20104;-56
2023/08/10 16:32:58;;;;;;;9.48;4.30;;;22.80;99.90;;;;;;7271360;32;20798;-56
2023/08/10 16:37:00;;;;;;;9.35;4.47;;;22.90;99.90;;;;;;7264047;32;20116;-56
2023/08/10 16:41:03;;;;;;;10.43;3.78;;;22.90;99.90;;;;;;7266312;32;20123;-56
2023/08/10 16:45:06;;;;;;;9.25;3.78;;;22.80;99.90;;;;;;7269969;32;20235;-56
2023/08/10 16:49:08;;;;;;;8.70;4.15;;;22.50;99.90;;;;;;7270376;32;20128;-57
2023/08/10 16:53:10;;;;;;;6.50;3.10;;;22.40;99.90;;;;;;7273615;32;20113;-56
2023/08/10 16:57:12;;;;;;;8.13;3.20;;;22.30;99.90;;;;;;7269430;32;20612;-55
2023/08/10 17:01:14;;;;;;;7.10;3.60;;;22.30;99.90;;;;;;7271750;32;20180;-55
2023/08/10 17:05:16;;;;;;;9.50;3.28;;;22.20;99.90;;;;;;7271811;32;20525;-56
2023/08/10 17:09:18;;;;;;;6.65;3.65;;;22.20;99.90;;;;;;7263399;32;20199;-55
2023/08/10 17:13:20;;;;;;;5.30;3.17;;;22.20;99.90;;;;;;7270578;32;20548;-56
2023/08/10 17:17:21;;;;;;;8.55;3.90;;;22.00;99.90;;;;;;7279040;32;20211;-55
2023/08/10 17:21:23;;;;;;;6.53;3.53;;;22.10;99.90;;;;;;7271240;32;20337;-55
2023/08/10 17:25:25;;;;;;;5.68;3.40;;;22.00;99.90;;;;;;7284202;32;20162;-55
2023/08/10 17:29:27;;;;;;;8.05;3.50;;;22.00;99.90;;;;;;7278220;32;20119;-55
2023/08/10 17:33:29;;;;;;;6.60;3.78;;;22.10;99.90;;;;;;7268260;32;20231;-56
2023/08/10 17:37:33;;;;;;;7.37;3.65;;;21.90;99.90;;;;;;7269709;32;20135;-56
2023/08/10 17:41:41;;;;;;;6.90;3.73;;;21.80;99.90;;;;;;7267749;32;20108;-56
2023/08/10 17:45:42;;;;;;;7.07;3.15;;;21.90;99.90;;;;;;7266392;32;20127;-56
2023/08/10 17:49:44;;;;;;;7.62;3.65;;;21.90;99.90;;;;;;7271067;32;20126;-56
2023/08/10 17:53:46;;;;;;;8.77;3.87;;;21.80;99.90;;;;;;7265828;32;20471;-57
2023/08/10 17:57:49;;;;;;;7.60;3.53;;;21.70;99.90;;;;;;7269587;32;20139;-57
2023/08/10 18:01:51;;;;;;;6.00;3.53;;;21.60;99.90;;;;;;7266350;32;20245;-56
2023/08/10 18:05:53;;;;;;;6.37;3.47;;;21.50;99.90;;;;;;7268584;32;20491;-57
2023/08/10 18:09:55;;;;;;;7.47;3.55;;;21.40;99.90;;;;;;7270208;32;20096;-56
2023/08/10 18:14:00;;;;;;;8.07;4.00;;;21.30;99.90;;;;;;7265271;32;20223;-56
2023/08/10 18:18:02;;;;;;;6.97;3.60;;;21.30;99.90;;;;;;7271170;32;20523;-56
2023/08/10 18:22:04;;;;;;;6.65;4.03;;;21.10;99.90;;;;;;7270153;32;20123;-56
2023/08/10 18:26:08;;;;;;;6.57;4.30;;;21.10;99.90;;;;;;7268483;32;20357;-56
2023/08/10 18:30:10;;;;;;;7.47;3.87;;;21.00;99.90;;;;;;7271429;32;20132;-57
2023/08/10 18:34:15;;;;;;;7.35;3.72;;;20.80;99.90;;;;;;7269442;32;20478;-55
2023/08/10 18:38:17;;;;;;;6.20;3.20;;;20.60;99.90;;;;;;7269697;32;20185;-56
2023/08/10 18:42:19;;;;;;;15.77;6.22;;;20.40;99.90;;;;;;7263672;32;20190;-57
2023/08/10 18:46:21;;;;;;;7.35;5.03;;;20.20;99.90;;;;;;7267101;32;20166;-55
2023/08/10 18:50:22;;;;;;;8.90;3.78;;;20.00;99.90;;;;;;7269622;32;20181;-56
2023/08/10 18:54:24;;;;;;;9.98;4.28;;;19.90;99.90;;;;;;7270283;32;20560;-56
2023/08/10 18:58:27;;;;;;;11.93;4.35;;;19.70;99.90;;;;;;7268350;32;20274;-55
2023/08/10 19:02:28;;;;;;;7.78;4.28;;;19.50;99.90;;;;;;7268089;32;21818;-56
2023/08/10 19:06:30;;;;;;;10.13;4.20;;;19.40;99.90;;;;;;7271466;32;20128;-56
2023/08/10 19:10:32;;;;;;;9.00;3.97;;;19.10;99.90;;;;;;7267039;32;20968;-55
2023/08/10 19:14:34;;;;;;;8.32;4.03;;;18.90;99.90;;;;;;7271118;32;20111;-55
2023/08/10 19:18:35;;;;;;;11.77;4.80;;;18.70;99.90;;;;;;7263786;32;20515;-60
2023/08/10 19:22:37;;;;;;;14.68;4.95;;;18.50;99.90;;;;;;7270307;32;20222;-58
2023/08/10 19:26:39;;;;;;;12.70;4.90;;;18.40;99.90;;;;;;7264888;32;20116;-60
2023/08/10 19:30:41;;;;;;;10.75;4.93;;;18.20;99.90;;;;;;7269778;32;20096;-59
2023/08/10 19:34:43;;;;;;;9.75;4.60;;;18.00;99.90;;;;;;7273027;32;20133;-59
2023/08/10 19:38:44;;;;;;;8.40;4.60;;;17.80;99.90;;;;;;7266748;32;20171;-58
2023/08/10 19:42:46;;;;;;;8.10;4.53;;;17.70;99.90;;;;;;7266665;32;20293;-59
2023/08/10 19:46:48;;;;;;;11.77;4.87;;;17.50;99.90;;;;;;7266086;32;20128;-59
2023/08/10 19:50:50;;;;;;;10.05;4.75;;;17.40;99.90;;;;;;7270882;32;20561;-59
2023/08/10 19:54:52;;;;;;;8.65;4.50;;;17.40;99.90;;;;;;7268260;32;20290;-60
2023/08/10 19:58:54;;;;;;;11.20;4.75;;;17.40;99.90;;;;;;7270998;32;20533;-61
2023/08/10 20:02:55;;;;;;;6.75;4.50;;;17.20;99.90;;;;;;7271731;32;20108;-60
2023/08/10 20:06:57;;;;;;;12.25;4.87;;;17.10;99.90;;;;;;7264215;32;20149;-60
2023/08/10 20:10:59;;;;;;;9.05;4.95;;;17.00;99.90;;;;;;7271190;32;20417;-56
2023/08/10 20:15:01;;;;;;;12.07;5.00;;;16.90;99.90;;;;;;7270793;32;20956;-56
2023/08/10 20:19:04;;;;;;;7.07;5.15;;;16.70;99.90;;;;;;7272803;32;20127;-56
2023/08/10 20:23:05;;;;;;;9.73;5.00;;;16.60;99.90;;;;;;7277644;32;20143;-56
2023/08/10 20:27:07;;;;;;;12.27;5.47;;;16.40;99.90;;;;;;7276649;32;20120;-55
2023/08/10 20:31:11;;;;;;;10.93;5.00;;;16.40;99.90;;;;;;7279069;32;20127;-55
2023/08/10 20:35:14;;;;;;;10.43;4.95;;;16.30;99.90;;;;;;7269766;32;20265;-57
2023/08/10 20:39:16;;;;;;;7.43;5.12;;;16.20;99.90;;;;;;7271460;32;20120;-56
2023/08/10 20:43:18;;;;;;;9.35;5.10;;;16.10;99.90;;;;;;7270478;32;20184;-54
2023/08/10 20:47:20;;;;;;;8.00;5.12;;;15.90;99.90;;;;;;7266683;32;20384;-56
2023/08/10 20:51:22;;;;;;;9.98;5.55;;;15.90;99.90;;;;;;7272593;32;20190;-55